createdAt,value
2019-05-15T00:00:51.930Z,2.90
2019-05-15T00:03:21.534Z,2.93
2019-05-15T00:05:50.750Z,3.30
2019-05-15T00:08:19.982Z,3.17
2019-05-15T00:10:49.216Z,2.60
2019-05-15T00:13:18.768Z,2.57
2019-05-15T00:15:48.298Z,2.60
2019-05-15T00:18:18.548Z,2.87
2019-05-15T00:20:49.598Z,2.70
2019-05-15T00:23:19.792Z,2.80
2019-05-15T00:25:49.481Z,3.27
2019-05-15T00:28:18.994Z,2.90
2019-05-15T00:30:48.500Z,3.00
2019-05-15T00:33:19.300Z,2.90
2019-05-15T00:35:48.754Z,3.00
2019-05-15T00:38:18.665Z,2.50
2019-05-15T00:40:49.550Z,2.87
2019-05-15T00:43:20.060Z,2.87
2019-05-15T00:45:49.628Z,3.37
2019-05-15T00:48:18.853Z,2.77
2019-05-15T00:50:49.815Z,4.00
2019-05-15T00:53:19.771Z,3.43
2019-05-15T00:55:48.994Z,3.20
2019-05-15T00:58:19.970Z,2.80
2019-05-15T01:00:49.619Z,3.40
2019-05-15T01:03:19.941Z,3.40
2019-05-15T01:05:49.191Z,3.40
2019-05-15T01:08:19.279Z,4.97
2019-05-15T01:10:49.118Z,3.60
2019-05-15T01:13:19.015Z,3.20
2019-05-15T01:15:49.081Z,3.60
2019-05-15T01:18:18.808Z,3.40
2019-05-15T01:20:49.326Z,3.80
2019-05-15T01:23:19.072Z,3.50
2019-05-15T01:25:48.631Z,3.30
2019-05-15T01:28:18.585Z,3.37
2019-05-15T01:30:49.301Z,3.30
2019-05-15T01:33:19.097Z,3.50
2019-05-15T01:35:48.896Z,3.33
2019-05-15T01:38:18.796Z,3.77
2019-05-15T01:40:48.693Z,2.93
2019-05-15T01:43:18.913Z,3.73
2019-05-15T01:45:48.509Z,3.77
2019-05-15T01:48:19.173Z,3.90
2019-05-15T01:50:49.259Z,3.77
2019-05-15T01:53:18.969Z,3.67
2019-05-15T01:55:48.640Z,3.60
2019-05-15T01:58:18.845Z,3.27
2019-05-15T02:00:48.600Z,3.83
2019-05-15T02:03:18.418Z,4.13
2019-05-15T02:05:48.304Z,4.27
2019-05-15T02:08:19.032Z,3.73
2019-05-15T02:10:49.333Z,3.67
2019-05-15T02:13:19.435Z,4.10
2019-05-15T02:15:48.860Z,3.60
2019-05-15T02:18:19.128Z,4.50
2019-05-15T02:20:49.384Z,3.12
2019-05-15T02:23:19.109Z,4.13
2019-05-15T02:25:48.791Z,3.83
2019-05-15T02:28:18.454Z,3.20
2019-05-15T02:30:50.531Z,4.00
2019-05-15T02:33:19.497Z,5.13
2019-05-15T02:35:50.099Z,4.03
2019-05-15T02:38:20.201Z,4.30
2019-05-15T02:40:49.687Z,4.37
2019-05-15T02:43:19.274Z,3.63
2019-05-15T02:45:50.984Z,3.83
2019-05-15T02:48:20.052Z,4.30
2019-05-15T02:50:50.296Z,3.93
2019-05-15T02:53:19.668Z,4.23
2019-05-15T02:55:49.738Z,3.80
2019-05-15T02:58:21.518Z,3.50
2019-05-15T03:00:53.456Z,3.40
2019-05-15T03:03:23.715Z,3.93
2019-05-15T03:05:53.108Z,3.70
2019-05-15T03:08:23.340Z,4.57
2019-05-15T03:10:52.935Z,4.40
2019-05-15T03:13:23.748Z,4.40
2019-05-15T03:15:53.317Z,4.33
2019-05-15T03:18:22.926Z,4.47
2019-05-15T03:20:52.523Z,4.43
2019-05-15T03:23:22.106Z,4.63
2019-05-15T03:25:52.830Z,4.40
2019-05-15T03:28:22.806Z,3.80
2019-05-15T03:31:15.315Z,4.00
2019-05-15T03:33:27.954Z,4.83
2019-05-15T03:35:55.247Z,4.07
2019-05-15T03:38:24.744Z,4.37
2019-05-15T03:40:54.307Z,4.30
2019-05-15T03:43:23.930Z,4.37
2019-05-15T03:45:53.666Z,5.30
2019-05-15T03:48:22.887Z,4.90
2019-05-15T03:50:52.123Z,4.63
2019-05-15T03:53:21.362Z,4.63
2019-05-15T03:55:50.892Z,4.77
2019-05-15T03:58:21.587Z,5.40
2019-05-15T04:00:51.161Z,4.60
2019-05-15T04:03:20.571Z,4.97
2019-05-15T04:05:50.098Z,4.60
2019-05-15T04:08:19.767Z,4.30
2019-05-15T04:10:49.144Z,5.13
2019-05-15T04:13:19.587Z,4.80
2019-05-15T04:15:50.307Z,4.00
2019-05-15T04:18:20.147Z,5.13
2019-05-15T04:20:51.110Z,5.13
2019-05-15T04:23:23.535Z,4.57
2019-05-15T04:25:53.792Z,4.03
2019-05-15T04:28:23.085Z,4.33
2019-05-15T04:30:53.167Z,5.23
2019-05-15T04:33:22.773Z,4.83
2019-05-15T04:35:52.320Z,4.67
2019-05-15T04:38:22.261Z,5.10
2019-05-15T04:40:51.878Z,5.30
2019-05-15T04:43:21.249Z,5.00
2019-05-15T04:45:50.848Z,4.60
2019-05-15T04:48:21.080Z,5.73
2019-05-15T04:50:50.357Z,4.87
2019-05-15T04:53:19.911Z,4.20
2019-05-15T04:55:50.938Z,4.73
2019-05-15T04:58:21.023Z,5.10
2019-05-15T05:00:52.533Z,5.35
2019-05-15T05:03:22.023Z,4.23
2019-05-15T05:05:51.867Z,4.37
2019-05-15T05:08:21.471Z,4.37
2019-05-15T05:10:50.908Z,4.05
2019-05-15T05:13:20.564Z,4.40
2019-05-15T05:15:50.629Z,4.60
2019-05-15T05:18:20.149Z,4.23
2019-05-15T05:20:49.505Z,3.80
2019-05-15T05:23:19.414Z,4.87
2019-05-15T05:25:50.173Z,3.73
2019-05-15T05:28:19.998Z,3.83
2019-05-15T05:30:49.334Z,3.53
2019-05-15T05:33:18.867Z,4.10
2019-05-15T05:35:48.848Z,3.47
2019-05-15T05:38:19.516Z,3.83
2019-05-15T05:40:49.927Z,4.00
2019-05-15T05:43:19.664Z,3.57
2019-05-15T05:45:49.482Z,3.40
2019-05-15T05:48:19.469Z,3.50
2019-05-15T05:50:49.850Z,3.30
2019-05-15T05:53:21.265Z,3.67
2019-05-15T05:55:53.398Z,4.07
2019-05-15T05:58:23.017Z,3.43
2019-05-15T06:00:53.265Z,3.47
2019-05-15T06:03:23.988Z,4.27
2019-05-15T06:05:54.238Z,3.80
2019-05-15T06:08:23.776Z,3.97
2019-05-15T06:10:52.999Z,3.97
2019-05-15T06:13:22.252Z,3.47
2019-05-15T06:15:51.497Z,3.60
2019-05-15T06:18:20.933Z,3.17
2019-05-15T06:20:50.277Z,3.40
2019-05-15T06:23:24.856Z,3.20
2019-05-15T06:25:51.209Z,2.80
2019-05-15T06:28:20.850Z,2.77
2019-05-15T06:30:50.092Z,3.20
2019-05-15T06:33:19.368Z,2.50
2019-05-15T06:35:49.428Z,3.00
2019-05-15T06:38:19.821Z,3.10
2019-05-15T06:40:50.463Z,2.57
2019-05-15T06:43:19.824Z,2.80
2019-05-15T06:45:49.428Z,2.57
2019-05-15T06:48:18.869Z,2.57
2019-05-15T06:50:49.043Z,2.93
2019-05-15T06:53:19.816Z,2.57
2019-05-15T06:55:49.484Z,2.73
2019-05-15T06:58:20.122Z,2.93
2019-05-15T07:00:49.869Z,2.30
2019-05-15T07:03:25.206Z,2.37
2019-05-15T07:05:51.617Z,2.60
2019-05-15T07:08:21.186Z,2.40
2019-05-15T07:10:51.837Z,2.77
2019-05-15T07:13:21.752Z,2.37
2019-05-15T07:15:51.444Z,2.50
2019-05-15T07:18:20.727Z,2.50
2019-05-15T07:20:51.069Z,2.43
2019-05-15T07:23:20.807Z,2.00
2019-05-15T07:25:52.059Z,2.13
2019-05-15T07:28:21.286Z,1.97
2019-05-15T07:30:51.559Z,1.60
2019-05-15T07:33:35.903Z,1.43
2019-05-15T07:35:51.770Z,1.73
2019-05-15T07:38:21.323Z,1.80
2019-05-15T07:40:59.704Z,1.47
2019-05-15T07:43:23.368Z,2.00
2019-05-15T07:45:55.280Z,1.47
2019-05-15T07:48:23.637Z,1.00
2019-05-15T07:50:54.922Z,1.60
2019-05-15T07:53:24.215Z,1.70
2019-05-15T07:55:53.539Z,1.20
2019-05-15T07:58:23.190Z,1.50
2019-05-15T08:00:52.786Z,1.23
2019-05-15T08:03:22.041Z,1.20
2019-05-15T08:06:00.231Z,1.27
2019-05-15T08:08:22.926Z,1.37
2019-05-15T08:10:52.700Z,1.60
2019-05-15T08:13:21.929Z,1.20
2019-05-15T08:15:51.151Z,1.40
2019-05-15T08:18:20.802Z,1.30
2019-05-15T08:20:50.018Z,1.20
2019-05-15T08:23:19.796Z,1.60
2019-05-15T08:25:49.141Z,1.40
2019-05-15T08:28:19.358Z,1.67
2019-05-15T08:30:49.762Z,1.70
2019-05-15T08:33:20.992Z,1.80
2019-05-15T08:35:51.793Z,1.70
2019-05-15T08:38:21.254Z,1.20
2019-05-15T08:40:50.553Z,1.50
2019-05-15T08:43:19.798Z,1.73
2019-05-15T08:45:49.937Z,1.50
2019-05-15T08:48:19.376Z,1.97
2019-05-15T08:50:49.156Z,2.27
2019-05-15T08:53:19.542Z,2.13
2019-05-15T08:55:49.722Z,1.80
2019-05-15T08:58:20.745Z,2.20
2019-05-15T09:00:52.578Z,2.33
2019-05-15T09:03:21.979Z,1.77
2019-05-15T09:05:52.149Z,1.93
2019-05-15T09:08:21.461Z,1.27
2019-05-15T09:10:51.085Z,1.90
2019-05-15T09:13:20.708Z,1.80
2019-05-15T09:15:50.245Z,1.37
2019-05-15T09:18:20.448Z,1.93
2019-05-15T09:20:49.930Z,1.87
2019-05-15T09:23:19.991Z,1.30
2019-05-15T09:25:49.884Z,1.60
2019-05-15T09:28:19.615Z,2.20
2019-05-15T09:30:50.618Z,1.80
2019-05-15T09:33:21.731Z,1.30
2019-05-15T09:35:51.003Z,1.57
2019-05-15T09:38:20.239Z,2.33
2019-05-15T09:40:51.186Z,1.70
2019-05-15T09:43:20.787Z,1.83
2019-05-15T09:45:50.022Z,1.60
2019-05-15T09:48:20.115Z,2.10
2019-05-15T09:50:50.637Z,1.53
2019-05-15T09:53:19.895Z,1.40
2019-05-15T09:55:49.850Z,1.90
2019-05-15T09:58:20.661Z,2.07
2019-05-15T10:00:52.520Z,1.80
2019-05-15T10:03:21.254Z,2.27
2019-05-15T10:05:50.691Z,2.20
2019-05-15T10:08:21.662Z,1.87
2019-05-15T10:10:51.377Z,2.23
2019-05-15T10:13:21.045Z,1.50
2019-05-15T10:15:51.195Z,2.20
2019-05-15T10:18:20.603Z,1.80
2019-05-15T10:20:49.855Z,1.70
2019-05-15T10:23:19.772Z,1.63
2019-05-15T10:25:49.331Z,1.83
2019-05-15T10:28:19.492Z,2.07
2019-05-15T10:30:49.808Z,2.17
2019-05-15T10:33:20.528Z,2.07
2019-05-15T10:35:51.187Z,1.90
2019-05-15T10:38:20.815Z,1.60
2019-05-15T10:41:04.052Z,1.63
2019-05-15T10:43:22.884Z,2.30
2019-05-15T10:45:54.687Z,1.93
2019-05-15T10:48:23.105Z,2.00
2019-05-15T10:50:52.348Z,1.63
2019-05-15T10:53:22.351Z,2.20
2019-05-15T10:55:51.634Z,1.47
2019-05-15T10:58:21.876Z,2.13
2019-05-15T11:00:52.101Z,1.87
2019-05-15T11:03:21.727Z,2.13
2019-05-15T11:05:50.971Z,2.13
2019-05-15T11:08:20.714Z,1.70
2019-05-15T11:10:50.119Z,2.40
2019-05-15T11:13:19.412Z,1.90
2019-05-15T11:15:49.349Z,2.20
2019-05-15T11:18:18.810Z,1.77
2019-05-15T11:20:49.026Z,1.70
2019-05-15T11:23:20.098Z,2.53
2019-05-15T11:25:49.374Z,2.37
2019-05-15T11:28:18.616Z,1.87
2019-05-15T11:30:49.030Z,2.27
2019-05-15T11:33:19.193Z,2.40
2019-05-15T11:36:01.299Z,1.90
2019-05-15T11:38:19.999Z,2.00
2019-05-15T11:40:49.299Z,2.27
2019-05-15T11:43:19.800Z,2.20
2019-05-15T11:45:49.467Z,2.10
2019-05-15T11:48:20.522Z,2.33
2019-05-15T11:50:52.086Z,2.57
2019-05-15T11:53:21.348Z,2.67
2019-05-15T11:55:51.271Z,2.73
2019-05-15T11:58:20.654Z,2.53
2019-05-15T12:00:50.287Z,2.77
2019-05-15T12:03:19.907Z,2.67
2019-05-15T12:05:49.211Z,2.17
2019-05-15T12:08:18.911Z,2.57
2019-05-15T12:10:48.722Z,2.57
2019-05-15T12:13:19.010Z,2.60
2019-05-15T12:15:49.166Z,2.40
2019-05-15T12:18:18.839Z,2.20
2019-05-15T12:20:48.846Z,2.60
2019-05-15T12:23:18.206Z,2.17
2019-05-15T12:25:48.898Z,2.30
2019-05-15T12:28:18.615Z,2.90
2019-05-15T12:30:49.371Z,3.50
2019-05-15T12:33:18.673Z,3.00
2019-05-15T12:35:50.762Z,7.93
2019-05-15T12:38:18.990Z,2.50
2019-05-15T13:01:12.708Z,2.20
2019-05-15T13:03:34.118Z,1.50
2019-05-15T13:06:04.464Z,2.37
2019-05-15T13:08:33.692Z,2.30
2019-05-15T13:11:03.401Z,2.50
2019-05-15T13:13:32.613Z,1.97
2019-05-15T13:16:01.866Z,2.17
2019-05-15T13:18:31.133Z,2.07
2019-05-15T13:21:01.853Z,1.73
2019-05-15T13:23:31.085Z,2.67
2019-05-15T13:26:00.333Z,2.40
2019-05-15T13:28:30.384Z,2.10
2019-05-15T13:30:59.898Z,2.07
2019-05-15T13:33:29.600Z,2.27
2019-05-15T13:35:58.839Z,1.90
2019-05-15T13:38:28.934Z,2.20
2019-05-15T13:40:58.959Z,2.30
2019-05-15T13:43:31.845Z,1.60
2019-05-15T13:46:01.091Z,2.17
2019-05-15T13:48:30.338Z,2.13
2019-05-15T13:50:59.994Z,2.00
2019-05-15T13:53:30.256Z,2.20
2019-05-15T13:55:59.501Z,2.27
2019-05-15T13:58:29.015Z,2.70
2019-05-15T14:00:58.850Z,2.70
2019-05-15T14:03:28.640Z,2.40
2019-05-15T14:05:58.548Z,2.80
2019-05-15T14:08:28.739Z,2.00
2019-05-15T14:10:58.479Z,2.93
2019-05-15T14:13:28.837Z,2.20
2019-05-15T14:15:59.245Z,2.10
2019-05-15T14:18:30.294Z,2.50
2019-05-15T14:20:59.945Z,2.40
2019-05-15T14:23:29.778Z,2.80
2019-05-15T14:26:13.020Z,1.80
2019-05-15T14:28:30.439Z,2.63
2019-05-15T14:31:00.015Z,2.03
2019-05-15T14:33:29.462Z,2.80
2019-05-15T14:35:59.699Z,2.80
2019-05-15T14:38:29.272Z,2.50
2019-05-15T14:40:59.926Z,2.30
2019-05-15T14:43:29.599Z,2.37
2019-05-15T14:45:59.459Z,2.53
2019-05-15T14:48:29.106Z,2.23
2019-05-15T14:50:58.569Z,2.30
2019-05-15T14:53:29.417Z,2.70
2019-05-15T14:56:00.286Z,3.00
2019-05-15T14:58:30.295Z,2.20
2019-05-15T15:01:02.969Z,2.20
2019-05-15T15:03:32.364Z,2.20
2019-05-15T15:06:02.283Z,2.60
2019-05-15T15:08:32.755Z,3.40
2019-05-15T15:11:02.441Z,2.40
2019-05-15T15:13:32.555Z,1.97
2019-05-15T15:16:02.614Z,2.10
2019-05-15T15:18:32.189Z,2.50
2019-05-15T15:21:01.454Z,2.10
2019-05-15T15:23:31.108Z,2.47
2019-05-15T15:26:00.328Z,2.13
2019-05-15T15:28:31.106Z,2.67
2019-05-15T15:31:02.136Z,2.30
2019-05-15T15:33:31.387Z,1.80
2019-05-15T15:36:00.654Z,1.63
2019-05-15T15:38:40.103Z,1.70
2019-05-15T15:41:01.639Z,2.40
2019-05-15T15:43:31.274Z,2.20
2019-05-15T15:46:00.739Z,2.53
2019-05-15T15:48:29.981Z,1.77
2019-05-15T15:50:59.870Z,2.57
2019-05-15T15:53:32.219Z,2.10
2019-05-15T15:56:01.966Z,1.77
2019-05-15T15:58:33.045Z,1.57
2019-05-15T16:01:02.579Z,2.20
2019-05-15T16:03:31.924Z,1.97
2019-05-15T16:06:01.921Z,1.60
2019-05-15T16:08:31.831Z,2.20
2019-05-15T16:11:01.294Z,1.80
2019-05-15T16:13:32.831Z,2.30
2019-05-15T16:16:02.121Z,2.07
2019-05-15T16:18:31.395Z,2.20
2019-05-15T16:21:01.016Z,2.60
2019-05-15T16:23:30.613Z,2.33
2019-05-15T16:26:01.161Z,1.93
2019-05-15T16:28:30.587Z,1.70
2019-05-15T16:31:00.814Z,2.10
2019-05-15T16:33:30.098Z,2.10
2019-05-15T16:36:01.633Z,2.10
2019-05-15T16:38:30.907Z,1.97
2019-05-15T16:41:00.120Z,2.43
2019-05-15T16:43:29.387Z,2.73
2019-05-15T16:46:00.789Z,2.10
2019-05-15T16:48:30.825Z,2.30
2019-05-15T16:51:01.499Z,1.90
2019-05-15T16:53:30.729Z,2.10
2019-05-15T16:56:00.449Z,2.40
2019-05-15T16:58:30.977Z,2.93
2019-05-15T17:01:00.255Z,3.03
2019-05-15T17:03:30.486Z,2.80
2019-05-15T17:06:01.682Z,2.47
2019-05-15T17:08:32.266Z,2.70
2019-05-15T17:11:05.171Z,2.70
2019-05-15T17:13:34.433Z,1.87
2019-05-15T17:16:03.674Z,2.27
2019-05-15T17:18:32.971Z,3.80
2019-05-15T17:21:03.493Z,2.27
2019-05-15T17:23:34.709Z,2.20
2019-05-15T17:26:05.494Z,2.83
2019-05-15T17:28:35.096Z,2.20
2019-05-15T17:31:04.901Z,2.30
2019-05-15T17:33:34.147Z,2.27
2019-05-15T17:36:04.424Z,2.87
2019-05-15T17:38:34.721Z,2.17
2019-05-15T17:41:04.768Z,2.60
2019-05-15T17:43:34.072Z,2.70
2019-05-15T17:46:04.511Z,3.20
2019-05-15T17:48:33.755Z,2.00
2019-05-15T17:51:05.010Z,2.00
2019-05-15T17:53:34.352Z,2.53
2019-05-15T17:56:04.261Z,2.95
2019-05-15T17:58:34.292Z,2.53
2019-05-15T18:01:04.227Z,2.80
2019-05-15T18:03:33.580Z,2.33
2019-05-15T18:06:04.238Z,3.20
2019-05-15T18:08:33.995Z,2.80
2019-05-15T18:11:03.614Z,2.70
2019-05-15T18:13:34.504Z,2.60
2019-05-15T18:16:04.421Z,2.80
2019-05-15T18:18:33.792Z,3.00
2019-05-15T18:21:04.547Z,2.33
2019-05-15T18:23:33.799Z,2.63
2019-05-15T18:26:03.228Z,2.93
2019-05-15T18:28:34.462Z,2.20
2019-05-15T18:31:04.214Z,2.67
2019-05-15T18:33:33.504Z,2.63
2019-05-15T18:36:02.867Z,2.13
2019-05-15T18:38:32.699Z,2.53
2019-05-15T18:41:03.892Z,2.90
2019-05-15T18:43:33.299Z,2.70
2019-05-15T18:46:03.075Z,2.93
2019-05-15T18:48:34.019Z,3.10
2019-05-15T18:51:03.388Z,2.93
2019-05-15T18:53:32.659Z,2.20
2019-05-15T18:56:02.009Z,3.50
2019-05-15T18:58:31.656Z,2.93
2019-05-15T19:01:02.178Z,3.30
2019-05-15T19:03:31.781Z,3.30
2019-05-15T19:06:01.108Z,4.20
2019-05-15T19:08:32.174Z,3.33
2019-05-15T19:11:01.975Z,3.47
2019-05-15T19:13:33.110Z,3.73
2019-05-15T19:16:02.602Z,4.13
2019-05-15T19:18:31.850Z,2.67
2019-05-15T19:21:02.226Z,4.07
2019-05-15T19:23:31.509Z,3.87
2019-05-15T19:26:01.038Z,3.50
2019-05-15T19:28:31.015Z,4.27
2019-05-15T19:31:00.316Z,3.53
2019-05-15T19:33:37.008Z,3.87
2019-05-15T19:36:02.349Z,3.77
2019-05-15T19:38:31.860Z,3.70
2019-05-15T19:41:03.035Z,3.73
2019-05-15T19:43:32.497Z,4.80
2019-05-15T19:46:02.115Z,4.00
2019-05-15T19:48:31.374Z,3.97
2019-05-15T19:51:02.962Z,3.43
2019-05-15T19:53:32.184Z,4.10
2019-05-15T19:56:01.459Z,3.70
2019-05-15T19:58:31.420Z,3.27
2019-05-15T20:01:01.069Z,3.50
2019-05-15T20:03:30.338Z,3.63
2019-05-15T20:06:01.715Z,3.33
2019-05-15T20:08:31.195Z,3.60
2019-05-15T20:11:00.436Z,3.40
2019-05-15T20:13:29.818Z,3.40
2019-05-15T20:15:59.053Z,3.30
2019-05-15T20:18:29.412Z,4.07
2019-05-15T20:20:58.658Z,3.40
2019-05-15T20:23:28.937Z,4.27
2019-05-15T20:25:58.385Z,4.87
2019-05-15T20:28:28.671Z,3.27
2019-05-15T20:30:58.681Z,3.57
2019-05-15T20:33:28.698Z,3.20
2019-05-15T20:35:58.733Z,4.53
2019-05-15T20:38:28.712Z,4.23
2019-05-15T20:40:59.949Z,3.93
2019-05-15T20:43:29.290Z,4.90
2019-05-15T20:45:59.255Z,2.90
2019-05-15T20:48:29.077Z,4.30
2019-05-15T20:50:58.941Z,4.13
2019-05-15T20:53:29.139Z,3.67
2019-05-15T20:55:59.498Z,4.00
2019-05-15T20:58:29.154Z,4.10
2019-05-15T21:00:59.287Z,4.93
2019-05-15T21:03:28.999Z,4.60
2019-05-15T21:06:00.736Z,4.00
2019-05-15T21:08:29.209Z,4.10
2019-05-15T21:10:59.086Z,5.10
2019-05-15T21:13:29.886Z,4.60
2019-05-15T21:15:59.271Z,4.70
2019-05-15T21:18:29.073Z,3.97
2019-05-15T21:20:58.528Z,4.60
2019-05-15T21:23:28.511Z,4.90
2019-05-15T21:25:59.022Z,3.53
2019-05-15T21:28:30.003Z,4.87
2019-05-15T21:30:59.476Z,4.13
2019-05-15T21:33:29.091Z,4.70
2019-05-15T21:35:58.484Z,3.67
2019-05-15T21:38:28.548Z,5.20
2019-05-15T21:40:58.673Z,4.77
2019-05-15T21:43:28.068Z,5.30
2019-05-15T21:45:59.157Z,4.73
2019-05-15T21:48:29.631Z,4.67
2019-05-15T21:50:58.893Z,5.37
2019-05-15T21:53:28.860Z,4.73
2019-05-15T21:55:59.025Z,3.97
2019-05-15T21:58:28.565Z,4.37
2019-05-15T22:00:58.104Z,4.70
2019-05-15T22:03:28.543Z,3.57
2019-05-15T22:05:58.397Z,3.53
2019-05-15T22:08:27.917Z,4.30
2019-05-15T22:10:57.230Z,4.80
2019-05-15T22:13:28.613Z,4.50
2019-05-15T22:15:59.439Z,3.63
2019-05-15T22:18:29.547Z,4.37
2019-05-15T22:20:58.792Z,4.00
2019-05-15T22:23:28.455Z,5.20
2019-05-15T22:25:58.466Z,4.50
2019-05-15T22:28:29.606Z,4.13
2019-05-15T22:30:59.844Z,4.37
2019-05-15T22:33:29.530Z,4.30
2019-05-15T22:35:59.974Z,3.87
2019-05-15T22:38:29.860Z,4.30
2019-05-15T22:40:59.701Z,4.00
2019-05-15T22:43:29.422Z,3.20
2019-05-15T22:45:59.102Z,5.33
2019-05-15T22:48:28.831Z,4.10
2019-05-15T22:50:58.465Z,4.57
2019-05-15T22:53:28.873Z,4.43
2019-05-15T22:55:58.901Z,4.07
2019-05-15T22:58:28.639Z,4.60
2019-05-15T23:00:59.728Z,4.40
2019-05-15T23:03:29.441Z,5.10
2019-05-15T23:05:59.108Z,4.60
2019-05-15T23:08:29.177Z,3.97
2019-05-15T23:10:58.952Z,5.23
2019-05-15T23:13:28.815Z,4.83
2019-05-15T23:15:58.650Z,4.30
2019-05-15T23:18:28.513Z,4.10
2019-05-15T23:20:59.430Z,4.27
2019-05-15T23:23:28.818Z,4.13
2019-05-15T23:25:58.332Z,4.30
2019-05-15T23:28:29.190Z,4.80
2019-05-15T23:30:58.405Z,3.60
2019-05-15T23:33:28.334Z,4.10
2019-05-15T23:35:58.748Z,4.00
2019-05-15T23:38:28.693Z,3.90
2019-05-15T23:40:59.008Z,3.97
2019-05-15T23:43:28.896Z,4.17
2019-05-15T23:45:58.985Z,4.17
2019-05-15T23:48:28.750Z,3.90
2019-05-15T23:50:59.119Z,3.50
2019-05-15T23:53:29.061Z,3.70
2019-05-15T23:55:58.871Z,4.03
2019-05-15T23:58:29.170Z,3.70
